Accueil
METAR-TAF:

METAR-TAF

Aéroports :

Aéroport de Cordoue

Cordoue, Espagne

latitude: 37-51N, longitude: 004-51W, altitude: 90 m

Observation

Le bulletin a été fait il y a 19 minutes, à 19:00 UTC
Vent 4 kt de ouest
Température 17°C
Humidité 55%
Pression 1015 hPa
Visibilité 10 km ou plus
pas de nuages en-dessous de 1500 mètres et pas de cumulonimbus.

METAR: LEBA 291900Z AUTO 28004KT CAVOK 17/08 Q1015

Heure: 21:19 (19:19 UTC)

Prévision

Le bulletin a été fait il y a 2 heures et 19 minutes, à 17:00 UTC
Prévision valable du 29 à 18 UTC au 30 à 03 UTC
Vent 5 kt de nord-ouest
Visibilité 10 km ou plus
pas de nuages en-dessous de 1500 mètres et pas de cumulonimbus.

TAF: LEBA 291700Z 2918/3003 31005KT CAVOK

Observations et prévisions météorologiques de plus de 4000 aéroports (messages METAR et TAF).

Les stations disponibles sont représentées par des disques jaunes et rouges sur la carte.

Passer la souris dessus pour voir le nom de la station.

Cliquer dessus pour voir les observations et prévisions météorologiques.

Pour changer de carte: cliquez sur les boutons verts avec une croix noire pour zoomer, sur le bouton vert avec un tiret pour effectuer un zoom arrière, ou sur les flèches vertes pour les cartes adjacentes.


METAR-TAF: